Monterey Peninsula Airport
KMRY : now visible

Airfield :











YOU CAN JOIN US ON...

 
LOGIN :

Register | Disclaimer

   EN    FR    IT 

 









Legend :    VFR   Marginal VFR   IFR   Intensive IFR   Very Intensive IFR
Visi :
Ceiling :
>= 8 km
>= 3000ft
5 to 8 km
1000 to 3000 ft
1500m to 5 km
500 to 1000 ft
800 to 1500m
200 to 500 ft
< 800m
< 200 ft
Symbols :   Thunderstorms  Fog  Heavy snow  Heavy precipitations  Wind > 20 kt






- Airport Elevation : 257 ft
- IATA code : MRY


KMRY - Monterey Peninsula

CURRENT METAR :
  • 281254Z 12003KT 10SM CLR 11/06 A3010 RMK AO2 SLP204 T01110061

EXPIRED METARs :
  • 281154Z 00000KT 10SM CLR 11/06 A3010 RMK AO2 SLP206 T01110061 10144 20111 58006
  • 281054Z 12003KT 6SM HZ CLR 12/08 A3011 RMK AO2 SLP207 T01220078

TAF KMRY
Valid from the 28 at 12:00 until the 29 at 12:00 UTC


281139Z 2812/2912 12005KT P6SM BKN200
FM281800 28006KT P6SM BKN180
FM290300 16004KT P6SM FEW010 BKN120
FM290600 18003KT P6SM SCT008 BKN120
FM290900 18003KT 6SM BR BKN008



MET'MAP, your aeronautical weather chart ! - Copyright ORBIFLY December 2007 - Disclaimer

ORBIFLY MET'MAP TEAM :

Programming & Development : Alexandra Zaïnal
Concept & original design : Baudouin d'Aumeries
Assistance for programming : Marc-Olivier Méhu
Technical & hardware support : Manuel Goepfert

Contact : metmap@orbifly.com




SOURCES & CREDITS :

   NOAA       Earth
Advisory